sensor_id;sensor_type;location;lat;lon;timestamp;temperature;humidity
17170;DHT22;8700;48.222;16.342;2023-05-07T00:02:27;17.10;99.90
17170;DHT22;8700;48.222;16.342;2023-05-07T00:05:48;17.10;99.90
17170;DHT22;8700;48.222;16.342;2023-05-07T00:09:09;17.00;99.90
17170;DHT22;8700;48.222;16.342;2023-05-07T00:12:32;16.90;99.90
17170;DHT22;8700;48.222;16.342;2023-05-07T00:15:53;17.00;99.90
17170;DHT22;8700;48.222;16.342;2023-05-07T00:19:15;16.90;99.90
17170;DHT22;8700;48.222;16.342;2023-05-07T00:22:36;16.80;99.90
17170;DHT22;8700;48.222;16.342;2023-05-07T00:25:57;16.70;99.90
17170;DHT22;8700;48.222;16.342;2023-05-07T00:29:20;16.60;99.90
17170;DHT22;8700;48.222;16.342;2023-05-07T00:32:41;16.60;99.90
17170;DHT22;8700;48.222;16.342;2023-05-07T00:36:05;16.70;99.90
17170;DHT22;8700;48.222;16.342;2023-05-07T00:39:26;16.60;99.90
17170;DHT22;8700;48.222;16.342;2023-05-07T00:42:48;16.50;99.90
17170;DHT22;8700;48.222;16.342;2023-05-07T00:46:11;16.20;99.90
17170;DHT22;8700;48.222;16.342;2023-05-07T00:49:38;16.10;99.90
17170;DHT22;8700;48.222;16.342;2023-05-07T00:53:00;16.00;99.90
17170;DHT22;8700;48.222;16.342;2023-05-07T00:56:22;16.00;99.90
17170;DHT22;8700;48.222;16.342;2023-05-07T00:59:43;16.00;99.90
17170;DHT22;8700;48.222;16.342;2023-05-07T01:03:06;16.00;99.90
17170;DHT22;8700;48.222;16.342;2023-05-07T01:06:29;16.00;99.90
17170;DHT22;8700;48.222;16.342;2023-05-07T01:09:51;16.10;99.90
17170;DHT22;8700;48.222;16.342;2023-05-07T01:13:13;15.80;99.90
17170;DHT22;8700;48.222;16.342;2023-05-07T01:16:35;15.60;99.90
17170;DHT22;8700;48.222;16.342;2023-05-07T01:19:58;15.60;99.90
17170;DHT22;8700;48.222;16.342;2023-05-07T01:23:21;15.80;99.90
17170;DHT22;8700;48.222;16.342;2023-05-07T01:26:44;15.90;99.90
17170;DHT22;8700;48.222;16.342;2023-05-07T01:30:06;15.90;99.90
17170;DHT22;8700;48.222;16.342;2023-05-07T01:33:29;16.00;99.90
17170;DHT22;8700;48.222;16.342;2023-05-07T01:36:52;16.00;99.90
17170;DHT22;8700;48.222;16.342;2023-05-07T01:40:16;16.20;99.90
17170;DHT22;8700;48.222;16.342;2023-05-07T01:43:38;16.30;99.90
17170;DHT22;8700;48.222;16.342;2023-05-07T01:47:01;16.30;99.90
17170;DHT22;8700;48.222;16.342;2023-05-07T01:50:26;16.40;99.90
17170;DHT22;8700;48.222;16.342;2023-05-07T01:53:48;16.40;99.90
17170;DHT22;8700;48.222;16.342;2023-05-07T01:57:12;16.40;99.90
17170;DHT22;8700;48.222;16.342;2023-05-07T02:00:33;16.40;99.90
17170;DHT22;8700;48.222;16.342;2023-05-07T02:03:54;16.50;99.90
17170;DHT22;8700;48.222;16.342;2023-05-07T02:07:16;16.40;99.90
17170;DHT22;8700;48.222;16.342;2023-05-07T02:10:37;16.40;99.90
17170;DHT22;8700;48.222;16.342;2023-05-07T02:14:00;16.40;99.90
17170;DHT22;8700;48.222;16.342;2023-05-07T02:17:21;16.40;99.90
17170;DHT22;8700;48.222;16.342;2023-05-07T02:20:43;16.40;99.90
17170;DHT22;8700;48.222;16.342;2023-05-07T02:24:04;16.40;99.90
17170;DHT22;8700;48.222;16.342;2023-05-07T02:27:26;16.30;99.90
17170;DHT22;8700;48.222;16.342;2023-05-07T02:30:48;16.20;99.90
17170;DHT22;8700;48.222;16.342;2023-05-07T02:34:10;16.30;99.90
17170;DHT22;8700;48.222;16.342;2023-05-07T02:37:31;16.30;99.90
17170;DHT22;8700;48.222;16.342;2023-05-07T02:40:52;16.30;99.90
17170;DHT22;8700;48.222;16.342;2023-05-07T02:44:14;16.30;99.90
17170;DHT22;8700;48.222;16.342;2023-05-07T02:47:36;16.20;99.90
17170;DHT22;8700;48.222;16.342;2023-05-07T02:50:57;16.10;99.90
17170;DHT22;8700;48.222;16.342;2023-05-07T02:54:20;16.20;99.90
17170;DHT22;8700;48.222;16.342;2023-05-07T02:57:41;16.10;99.90
17170;DHT22;8700;48.222;16.342;2023-05-07T03:01:03;16.00;99.90
17170;DHT22;8700;48.222;16.342;2023-05-07T03:04:25;16.00;99.90
17170;DHT22;8700;48.222;16.342;2023-05-07T03:07:47;15.90;99.90
17170;DHT22;8700;48.222;16.342;2023-05-07T03:11:08;15.90;99.90
17170;DHT22;8700;48.222;16.342;2023-05-07T03:14:29;15.90;99.90
17170;DHT22;8700;48.222;16.342;2023-05-07T03:17:50;15.90;99.90
17170;DHT22;8700;48.222;16.342;2023-05-07T03:21:13;15.80;99.90
17170;DHT22;8700;48.222;16.342;2023-05-07T03:24:34;15.80;99.90
17170;DHT22;8700;48.222;16.342;2023-05-07T03:27:56;15.80;99.90
17170;DHT22;8700;48.222;16.342;2023-05-07T03:31:17;15.70;99.90
17170;DHT22;8700;48.222;16.342;2023-05-07T03:34:39;15.70;99.90
17170;DHT22;8700;48.222;16.342;2023-05-07T03:38:01;15.70;99.90
17170;DHT22;8700;48.222;16.342;2023-05-07T03:41:23;15.70;99.90
17170;DHT22;8700;48.222;16.342;2023-05-07T03:44:45;15.70;99.90
17170;DHT22;8700;48.222;16.342;2023-05-07T03:48:07;15.70;99.90
17170;DHT22;8700;48.222;16.342;2023-05-07T03:51:28;15.70;99.90
17170;DHT22;8700;48.222;16.342;2023-05-07T03:54:51;15.60;99.90
17170;DHT22;8700;48.222;16.342;2023-05-07T03:58:12;15.60;99.90
17170;DHT22;8700;48.222;16.342;2023-05-07T04:01:33;15.50;99.90
17170;DHT22;8700;48.222;16.342;2023-05-07T04:04:54;15.50;99.90
17170;DHT22;8700;48.222;16.342;2023-05-07T04:08:16;15.50;99.90
17170;DHT22;8700;48.222;16.342;2023-05-07T04:11:38;15.50;99.90
17170;DHT22;8700;48.222;16.342;2023-05-07T04:15:00;15.60;99.90
17170;DHT22;8700;48.222;16.342;2023-05-07T04:18:21;15.80;99.90
17170;DHT22;8700;48.222;16.342;2023-05-07T04:21:43;15.80;99.90
17170;DHT22;8700;48.222;16.342;2023-05-07T04:25:05;15.90;99.90
17170;DHT22;8700;48.222;16.342;2023-05-07T04:28:28;15.80;99.90
17170;DHT22;8700;48.222;16.342;2023-05-07T04:31:49;15.90;99.90
17170;DHT22;8700;48.222;16.342;2023-05-07T04:35:10;16.00;99.90
17170;DHT22;8700;48.222;16.342;2023-05-07T04:38:31;16.20;99.90
17170;DHT22;8700;48.222;16.342;2023-05-07T04:41:53;16.30;99.90
17170;DHT22;8700;48.222;16.342;2023-05-07T04:45:15;16.40;99.90
17170;DHT22;8700;48.222;16.342;2023-05-07T04:48:37;16.30;99.90
17170;DHT22;8700;48.222;16.342;2023-05-07T04:51:58;16.30;99.90
17170;DHT22;8700;48.222;16.342;2023-05-07T04:55:19;16.50;99.90
17170;DHT22;8700;48.222;16.342;2023-05-07T04:58:40;16.70;99.90
17170;DHT22;8700;48.222;16.342;2023-05-07T05:02:05;16.70;99.90
17170;DHT22;8700;48.222;16.342;2023-05-07T05:05:26;16.80;99.90
17170;DHT22;8700;48.222;16.342;2023-05-07T05:08:47;16.90;99.90
17170;DHT22;8700;48.222;16.342;2023-05-07T05:12:08;17.00;99.90
17170;DHT22;8700;48.222;16.342;2023-05-07T05:15:30;17.00;99.90
17170;DHT22;8700;48.222;16.342;2023-05-07T05:18:52;16.90;99.90
17170;DHT22;8700;48.222;16.342;2023-05-07T05:22:14;16.80;99.90
17170;DHT22;8700;48.222;16.342;2023-05-07T05:25:35;16.80;99.90
17170;DHT22;8700;48.222;16.342;2023-05-07T05:28:57;16.90;99.90
17170;DHT22;8700;48.222;16.342;2023-05-07T05:32:18;17.00;99.90
17170;DHT22;8700;48.222;16.342;2023-05-07T05:35:41;17.10;99.90
17170;DHT22;8700;48.222;16.342;2023-05-07T05:39:02;17.20;99.90
17170;DHT22;8700;48.222;16.342;2023-05-07T05:42:24;17.20;99.90
17170;DHT22;8700;48.222;16.342;2023-05-07T05:45:45;17.30;99.90
17170;DHT22;8700;48.222;16.342;2023-05-07T05:49:06;17.30;99.90
17170;DHT22;8700;48.222;16.342;2023-05-07T05:52:29;17.50;99.90
17170;DHT22;8700;48.222;16.342;2023-05-07T05:55:51;17.70;99.90
17170;DHT22;8700;48.222;16.342;2023-05-07T05:59:12;17.80;99.90
17170;DHT22;8700;48.222;16.342;2023-05-07T06:02:34;17.80;99.90
17170;DHT22;8700;48.222;16.342;2023-05-07T06:05:55;17.60;99.90
17170;DHT22;8700;48.222;16.342;2023-05-07T06:09:18;17.80;99.90
17170;DHT22;8700;48.222;16.342;2023-05-07T06:12:39;18.00;99.90
17170;DHT22;8700;48.222;16.342;2023-05-07T06:16:01;18.40;99.90
17170;DHT22;8700;48.222;16.342;2023-05-07T06:19:22;18.50;99.90
17170;DHT22;8700;48.222;16.342;2023-05-07T06:22:44;18.50;99.90
17170;DHT22;8700;48.222;16.342;2023-05-07T06:26:06;18.50;99.90
17170;DHT22;8700;48.222;16.342;2023-05-07T06:29:28;18.80;99.90
17170;DHT22;8700;48.222;16.342;2023-05-07T06:32:51;18.80;99.90
17170;DHT22;8700;48.222;16.342;2023-05-07T06:36:12;18.70;99.90
17170;DHT22;8700;48.222;16.342;2023-05-07T06:39:33;18.60;99.90
17170;DHT22;8700;48.222;16.342;2023-05-07T06:42:57;18.20;99.90
17170;DHT22;8700;48.222;16.342;2023-05-07T06:46:18;18.20;99.90
17170;DHT22;8700;48.222;16.342;2023-05-07T06:49:40;18.40;99.90
17170;DHT22;8700;48.222;16.342;2023-05-07T06:53:01;18.60;99.90
17170;DHT22;8700;48.222;16.342;2023-05-07T06:56:23;18.80;99.90
17170;DHT22;8700;48.222;16.342;2023-05-07T06:59:46;18.80;99.90
17170;DHT22;8700;48.222;16.342;2023-05-07T07:03:07;19.20;99.90
17170;DHT22;8700;48.222;16.342;2023-05-07T07:06:28;19.40;99.90
17170;DHT22;8700;48.222;16.342;2023-05-07T07:09:51;19.50;99.90
17170;DHT22;8700;48.222;16.342;2023-05-07T07:13:12;19.60;99.90
17170;DHT22;8700;48.222;16.342;2023-05-07T07:16:35;19.40;99.90
17170;DHT22;8700;48.222;16.342;2023-05-07T07:19:56;19.20;99.90
17170;DHT22;8700;48.222;16.342;2023-05-07T07:23:18;19.00;99.90
17170;DHT22;8700;48.222;16.342;2023-05-07T07:26:41;19.20;99.90
17170;DHT22;8700;48.222;16.342;2023-05-07T07:30:03;19.70;99.90
17170;DHT22;8700;48.222;16.342;2023-05-07T07:33:26;19.70;99.90
17170;DHT22;8700;48.222;16.342;2023-05-07T07:36:48;19.60;99.90
17170;DHT22;8700;48.222;16.342;2023-05-07T07:40:10;19.60;99.90
17170;DHT22;8700;48.222;16.342;2023-05-07T07:43:32;19.70;99.90
17170;DHT22;8700;48.222;16.342;2023-05-07T07:46:54;19.70;99.90
17170;DHT22;8700;48.222;16.342;2023-05-07T07:50:17;19.50;99.90
17170;DHT22;8700;48.222;16.342;2023-05-07T07:53:38;19.70;99.90
17170;DHT22;8700;48.222;16.342;2023-05-07T07:57:01;20.00;99.90
17170;DHT22;8700;48.222;16.342;2023-05-07T08:00:22;19.80;99.90
17170;DHT22;8700;48.222;16.342;2023-05-07T08:03:44;19.80;99.90
17170;DHT22;8700;48.222;16.342;2023-05-07T08:07:07;20.20;99.90
17170;DHT22;8700;48.222;16.342;2023-05-07T08:10:28;20.50;99.90
17170;DHT22;8700;48.222;16.342;2023-05-07T08:13:49;21.90;99.90
17170;DHT22;8700;48.222;16.342;2023-05-07T08:17:11;22.10;99.90
17170;DHT22;8700;48.222;16.342;2023-05-07T08:20:35;21.60;99.90
17170;DHT22;8700;48.222;16.342;2023-05-07T08:24:01;21.40;99.90
17170;DHT22;8700;48.222;16.342;2023-05-07T08:27:22;21.60;99.90
17170;DHT22;8700;48.222;16.342;2023-05-07T08:30:43;21.40;99.90
17170;DHT22;8700;48.222;16.342;2023-05-07T08:34:04;21.20;99.90
17170;DHT22;8700;48.222;16.342;2023-05-07T08:37:26;21.90;99.90
17170;DHT22;8700;48.222;16.342;2023-05-07T08:40:49;21.90;99.90
17170;DHT22;8700;48.222;16.342;2023-05-07T08:44:12;21.80;99.90
17170;DHT22;8700;48.222;16.342;2023-05-07T08:47:40;21.50;99.90
17170;DHT22;8700;48.222;16.342;2023-05-07T08:51:03;21.70;99.90
17170;DHT22;8700;48.222;16.342;2023-05-07T08:54:25;22.40;99.90
17170;DHT22;8700;48.222;16.342;2023-05-07T08:57:48;23.30;99.90
17170;DHT22;8700;48.222;16.342;2023-05-07T09:01:13;23.00;99.90
17170;DHT22;8700;48.222;16.342;2023-05-07T09:04:34;22.60;99.90
17170;DHT22;8700;48.222;16.342;2023-05-07T09:07:59;23.00;99.90
17170;DHT22;8700;48.222;16.342;2023-05-07T09:11:21;23.10;99.90
17170;DHT22;8700;48.222;16.342;2023-05-07T09:14:44;22.90;99.90
17170;DHT22;8700;48.222;16.342;2023-05-07T09:18:08;22.90;99.90
17170;DHT22;8700;48.222;16.342;2023-05-07T09:21:29;23.10;99.90
17170;DHT22;8700;48.222;16.342;2023-05-07T09:24:51;23.10;99.90
17170;DHT22;8700;48.222;16.342;2023-05-07T09:28:13;23.10;99.90
17170;DHT22;8700;48.222;16.342;2023-05-07T09:31:37;23.20;99.90
17170;DHT22;8700;48.222;16.342;2023-05-07T09:34:59;23.30;99.90
17170;DHT22;8700;48.222;16.342;2023-05-07T09:38:21;22.60;99.90
17170;DHT22;8700;48.222;16.342;2023-05-07T09:41:46;22.70;99.90
17170;DHT22;8700;48.222;16.342;2023-05-07T09:45:09;23.20;99.90
17170;DHT22;8700;48.222;16.342;2023-05-07T09:48:33;24.10;99.90
17170;DHT22;8700;48.222;16.342;2023-05-07T09:51:58;24.10;99.40
17170;DHT22;8700;48.222;16.342;2023-05-07T09:55:21;23.80;99.20
17170;DHT22;8700;48.222;16.342;2023-05-07T09:58:43;23.30;99.90
17170;DHT22;8700;48.222;16.342;2023-05-07T10:02:05;23.10;99.90
17170;DHT22;8700;48.222;16.342;2023-05-07T10:05:29;24.30;99.30
17170;DHT22;8700;48.222;16.342;2023-05-07T10:08:51;24.80;97.90
17170;DHT22;8700;48.222;16.342;2023-05-07T10:12:13;24.20;98.20
17170;DHT22;8700;48.222;16.342;2023-05-07T10:15:34;24.70;99.10
17170;DHT22;8700;48.222;16.342;2023-05-07T10:18:58;25.20;96.90
17170;DHT22;8700;48.222;16.342;2023-05-07T10:22:21;25.10;96.60
17170;DHT22;8700;48.222;16.342;2023-05-07T10:25:43;26.50;96.30
17170;DHT22;8700;48.222;16.342;2023-05-07T10:29:10;27.10;93.30
17170;DHT22;8700;48.222;16.342;2023-05-07T10:32:39;26.10;93.70
17170;DHT22;8700;48.222;16.342;2023-05-07T10:36:01;26.00;94.90
17170;DHT22;8700;48.222;16.342;2023-05-07T10:39:25;26.20;93.00
17170;DHT22;8700;48.222;16.342;2023-05-07T10:42:57;25.70;94.20
17170;DHT22;8700;48.222;16.342;2023-05-07T10:46:20;26.50;93.20
17170;DHT22;8700;48.222;16.342;2023-05-07T10:53:40;25.60;93.00
17170;DHT22;8700;48.222;16.342;2023-05-07T10:57:35;25.70;93.60
17170;DHT22;8700;48.222;16.342;2023-05-07T11:00:58;26.50;92.80
17170;DHT22;8700;48.222;16.342;2023-05-07T11:04:19;26.90;91.40
17170;DHT22;8700;48.222;16.342;2023-05-07T11:07:54;26.30;91.10
17170;DHT22;8700;48.222;16.342;2023-05-07T11:11:15;25.70;91.80
17170;DHT22;8700;48.222;16.342;2023-05-07T11:14:46;26.30;91.90
17170;DHT22;8700;48.222;16.342;2023-05-07T11:18:08;27.10;90.00
17170;DHT22;8700;48.222;16.342;2023-05-07T11:21:35;26.80;89.30
17170;DHT22;8700;48.222;16.342;2023-05-07T11:24:56;25.80;90.60
17170;DHT22;8700;48.222;16.342;2023-05-07T11:28:18;25.90;90.60
17170;DHT22;8700;48.222;16.342;2023-05-07T11:31:41;26.40;89.10
17170;DHT22;8700;48.222;16.342;2023-05-07T11:35:03;26.40;89.00
17170;DHT22;8700;48.222;16.342;2023-05-07T11:38:26;26.00;87.90
17170;DHT22;8700;48.222;16.342;2023-05-07T11:41:47;25.70;90.00
17170;DHT22;8700;48.222;16.342;2023-05-07T11:45:09;25.70;89.40
17170;DHT22;8700;48.222;16.342;2023-05-07T11:48:32;25.20;90.50
17170;DHT22;8700;48.222;16.342;2023-05-07T11:51:53;24.50;91.30
17170;DHT22;8700;48.222;16.342;2023-05-07T11:55:18;24.10;92.30
17170;DHT22;8700;48.222;16.342;2023-05-07T11:58:40;24.20;92.60
17170;DHT22;8700;48.222;16.342;2023-05-07T12:02:01;24.50;92.60
17170;DHT22;8700;48.222;16.342;2023-05-07T12:05:25;24.50;92.50
17170;DHT22;8700;48.222;16.342;2023-05-07T12:08:46;24.40;92.50
17170;DHT22;8700;48.222;16.342;2023-05-07T12:12:07;24.60;92.20
17170;DHT22;8700;48.222;16.342;2023-05-07T12:15:29;24.50;92.40
17170;DHT22;8700;48.222;16.342;2023-05-07T12:18:50;24.20;93.30
17170;DHT22;8700;48.222;16.342;2023-05-07T12:22:14;24.30;93.80
17170;DHT22;8700;48.222;16.342;2023-05-07T12:25:35;24.70;92.50
17170;DHT22;8700;48.222;16.342;2023-05-07T12:28:57;24.30;92.70
17170;DHT22;8700;48.222;16.342;2023-05-07T12:32:24;24.00;92.90
17170;DHT22;8700;48.222;16.342;2023-05-07T12:35:54;23.60;94.10
17170;DHT22;8700;48.222;16.342;2023-05-07T12:39:17;24.00;94.40
17170;DHT22;8700;48.222;16.342;2023-05-07T12:42:40;24.40;93.90
17170;DHT22;8700;48.222;16.342;2023-05-07T12:46:03;24.20;94.20
17170;DHT22;8700;48.222;16.342;2023-05-07T12:49:25;23.90;94.60
17170;DHT22;8700;48.222;16.342;2023-05-07T12:52:48;23.70;94.80
17170;DHT22;8700;48.222;16.342;2023-05-07T12:56:15;23.60;95.20
17170;DHT22;8700;48.222;16.342;2023-05-07T12:59:37;23.60;94.20
17170;DHT22;8700;48.222;16.342;2023-05-07T13:02:59;23.40;93.50
17170;DHT22;8700;48.222;16.342;2023-05-07T13:06:20;23.40;93.60
17170;DHT22;8700;48.222;16.342;2023-05-07T13:09:42;23.80;93.70
17170;DHT22;8700;48.222;16.342;2023-05-07T13:13:04;24.30;93.10
17170;DHT22;8700;48.222;16.342;2023-05-07T13:16:25;24.20;93.10
17170;DHT22;8700;48.222;16.342;2023-05-07T13:19:46;24.40;92.80
17170;DHT22;8700;48.222;16.342;2023-05-07T13:23:08;24.80;92.10
17170;DHT22;8700;48.222;16.342;2023-05-07T13:26:30;24.50;92.00
17170;DHT22;8700;48.222;16.342;2023-05-07T13:29:53;24.30;92.10
17170;DHT22;8700;48.222;16.342;2023-05-07T13:33:15;24.70;91.80
17170;DHT22;8700;48.222;16.342;2023-05-07T13:36:37;24.70;91.80
17170;DHT22;8700;48.222;16.342;2023-05-07T13:39:59;25.10;91.10
17170;DHT22;8700;48.222;16.342;2023-05-07T13:43:21;24.70;90.60
17170;DHT22;8700;48.222;16.342;2023-05-07T13:46:43;24.20;91.30
17170;DHT22;8700;48.222;16.342;2023-05-07T13:50:06;24.00;91.20
17170;DHT22;8700;48.222;16.342;2023-05-07T13:53:27;23.70;91.30
17170;DHT22;8700;48.222;16.342;2023-05-07T13:56:49;23.50;91.60
17170;DHT22;8700;48.222;16.342;2023-05-07T14:00:13;23.60;91.90
17170;DHT22;8700;48.222;16.342;2023-05-07T14:03:37;23.60;91.70
17170;DHT22;8700;48.222;16.342;2023-05-07T14:06:59;23.30;92.10
17170;DHT22;8700;48.222;16.342;2023-05-07T14:10:21;23.60;91.90
17170;DHT22;8700;48.222;16.342;2023-05-07T14:13:42;23.50;91.90
17170;DHT22;8700;48.222;16.342;2023-05-07T14:17:03;23.40;91.70
17170;DHT22;8700;48.222;16.342;2023-05-07T14:20:26;23.00;92.40
17170;DHT22;8700;48.222;16.342;2023-05-07T14:23:47;22.90;92.50
17170;DHT22;8700;48.222;16.342;2023-05-07T14:27:08;23.00;92.90
17170;DHT22;8700;48.222;16.342;2023-05-07T14:30:30;23.10;91.60
17170;DHT22;8700;48.222;16.342;2023-05-07T14:33:51;22.90;91.60
17170;DHT22;8700;48.222;16.342;2023-05-07T14:37:14;22.90;92.30
17170;DHT22;8700;48.222;16.342;2023-05-07T14:40:35;22.80;93.50
17170;DHT22;8700;48.222;16.342;2023-05-07T14:43:56;22.70;93.60
17170;DHT22;8700;48.222;16.342;2023-05-07T14:47:18;22.50;94.00
17170;DHT22;8700;48.222;16.342;2023-05-07T14:50:39;22.20;94.40
17170;DHT22;8700;48.222;16.342;2023-05-07T14:54:02;22.10;94.80
17170;DHT22;8700;48.222;16.342;2023-05-07T14:57:23;22.10;95.10
17170;DHT22;8700;48.222;16.342;2023-05-07T15:00:45;22.10;94.90
17170;DHT22;8700;48.222;16.342;2023-05-07T15:04:09;22.20;94.70
17170;DHT22;8700;48.222;16.342;2023-05-07T15:07:30;22.10;94.90
17170;DHT22;8700;48.222;16.342;2023-05-07T15:10:53;22.10;95.40
17170;DHT22;8700;48.222;16.342;2023-05-07T15:14:15;22.30;95.00
17170;DHT22;8700;48.222;16.342;2023-05-07T15:17:37;22.30;95.10
17170;DHT22;8700;48.222;16.342;2023-05-07T15:20:58;22.10;94.90
17170;DHT22;8700;48.222;16.342;2023-05-07T15:24:20;21.70;95.20
17170;DHT22;8700;48.222;16.342;2023-05-07T15:27:42;21.40;96.00
17170;DHT22;8700;48.222;16.342;2023-05-07T15:31:05;21.40;96.50
17170;DHT22;8700;48.222;16.342;2023-05-07T15:34:27;21.60;96.40
17170;DHT22;8700;48.222;16.342;2023-05-07T15:37:48;21.60;96.20
17170;DHT22;8700;48.222;16.342;2023-05-07T15:41:10;21.40;96.30
17170;DHT22;8700;48.222;16.342;2023-05-07T15:44:33;21.20;96.50
17170;DHT22;8700;48.222;16.342;2023-05-07T15:47:55;20.90;96.90
17170;DHT22;8700;48.222;16.342;2023-05-07T15:51:18;20.80;97.30
17170;DHT22;8700;48.222;16.342;2023-05-07T15:54:40;20.70;97.60
17170;DHT22;8700;48.222;16.342;2023-05-07T15:58:01;20.60;97.70
17170;DHT22;8700;48.222;16.342;2023-05-07T16:01:28;20.40;97.90
17170;DHT22;8700;48.222;16.342;2023-05-07T16:04:50;20.40;98.00
17170;DHT22;8700;48.222;16.342;2023-05-07T16:08:11;20.30;98.00
17170;DHT22;8700;48.222;16.342;2023-05-07T16:11:32;20.30;98.20
17170;DHT22;8700;48.222;16.342;2023-05-07T16:14:55;20.20;98.20
17170;DHT22;8700;48.222;16.342;2023-05-07T16:18:19;20.10;98.30
17170;DHT22;8700;48.222;16.342;2023-05-07T16:21:40;19.90;98.90
17170;DHT22;8700;48.222;16.342;2023-05-07T16:25:02;19.60;99.40
17170;DHT22;8700;48.222;16.342;2023-05-07T16:28:24;19.60;99.80
17170;DHT22;8700;48.222;16.342;2023-05-07T16:31:45;19.70;99.60
17170;DHT22;8700;48.222;16.342;2023-05-07T16:35:09;19.50;99.60
17170;DHT22;8700;48.222;16.342;2023-05-07T16:38:30;19.50;99.90
17170;DHT22;8700;48.222;16.342;2023-05-07T16:41:53;19.40;99.70
17170;DHT22;8700;48.222;16.342;2023-05-07T16:45:14;19.20;99.90
17170;DHT22;8700;48.222;16.342;2023-05-07T16:48:37;18.90;99.90
17170;DHT22;8700;48.222;16.342;2023-05-07T16:52:00;18.80;99.90
17170;DHT22;8700;48.222;16.342;2023-05-07T16:55:21;18.50;99.90
17170;DHT22;8700;48.222;16.342;2023-05-07T16:58:42;18.30;99.90
17170;DHT22;8700;48.222;16.342;2023-05-07T17:02:06;18.20;99.90
17170;DHT22;8700;48.222;16.342;2023-05-07T17:05:28;18.20;99.90
17170;DHT22;8700;48.222;16.342;2023-05-07T17:08:51;18.00;99.90
17170;DHT22;8700;48.222;16.342;2023-05-07T17:12:12;17.90;99.90
17170;DHT22;8700;48.222;16.342;2023-05-07T17:15:34;17.70;99.90
17170;DHT22;8700;48.222;16.342;2023-05-07T17:18:55;17.50;99.90
17170;DHT22;8700;48.222;16.342;2023-05-07T17:22:16;17.40;99.90
17170;DHT22;8700;48.222;16.342;2023-05-07T17:25:39;17.40;99.90
17170;DHT22;8700;48.222;16.342;2023-05-07T17:29:04;17.30;99.90
17170;DHT22;8700;48.222;16.342;2023-05-07T17:32:26;17.20;99.90
17170;DHT22;8700;48.222;16.342;2023-05-07T17:35:48;16.90;99.90
17170;DHT22;8700;48.222;16.342;2023-05-07T17:39:09;16.80;99.90
17170;DHT22;8700;48.222;16.342;2023-05-07T17:42:32;16.80;99.90
17170;DHT22;8700;48.222;16.342;2023-05-07T17:45:53;16.80;99.90
17170;DHT22;8700;48.222;16.342;2023-05-07T17:49:15;16.60;99.90
17170;DHT22;8700;48.222;16.342;2023-05-07T17:52:37;16.50;99.90
17170;DHT22;8700;48.222;16.342;2023-05-07T17:55:59;16.40;99.90
17170;DHT22;8700;48.222;16.342;2023-05-07T17:59:21;16.30;99.90
17170;DHT22;8700;48.222;16.342;2023-05-07T18:02:46;16.20;99.90
17170;DHT22;8700;48.222;16.342;2023-05-07T18:06:07;16.00;99.90
17170;DHT22;8700;48.222;16.342;2023-05-07T18:09:29;15.80;99.90
17170;DHT22;8700;48.222;16.342;2023-05-07T18:13:21;15.70;99.90
17170;DHT22;8700;48.222;16.342;2023-05-07T18:16:43;15.60;99.90
17170;DHT22;8700;48.222;16.342;2023-05-07T18:20:05;15.40;99.90
17170;DHT22;8700;48.222;16.342;2023-05-07T18:23:30;15.20;99.90
17170;DHT22;8700;48.222;16.342;2023-05-07T18:26:54;15.00;99.90
17170;DHT22;8700;48.222;16.342;2023-05-07T18:30:17;14.90;99.90
17170;DHT22;8700;48.222;16.342;2023-05-07T18:33:38;14.80;99.90
17170;DHT22;8700;48.222;16.342;2023-05-07T18:37:00;14.80;99.90
17170;DHT22;8700;48.222;16.342;2023-05-07T18:40:21;14.80;99.90
17170;DHT22;8700;48.222;16.342;2023-05-07T18:43:43;14.80;99.90
17170;DHT22;8700;48.222;16.342;2023-05-07T18:47:05;14.70;99.90
17170;DHT22;8700;48.222;16.342;2023-05-07T18:50:27;14.60;99.90
17170;DHT22;8700;48.222;16.342;2023-05-07T18:53:48;14.50;99.90
17170;DHT22;8700;48.222;16.342;2023-05-07T18:57:09;14.30;99.90
17170;DHT22;8700;48.222;16.342;2023-05-07T19:00:30;14.20;99.90
17170;DHT22;8700;48.222;16.342;2023-05-07T19:03:53;14.10;99.90
17170;DHT22;8700;48.222;16.342;2023-05-07T19:07:16;13.90;99.90
17170;DHT22;8700;48.222;16.342;2023-05-07T19:10:37;13.80;99.90
17170;DHT22;8700;48.222;16.342;2023-05-07T19:13:59;13.70;99.90
17170;DHT22;8700;48.222;16.342;2023-05-07T19:17:20;13.70;99.90
17170;DHT22;8700;48.222;16.342;2023-05-07T19:20:43;13.50;99.90
17170;DHT22;8700;48.222;16.342;2023-05-07T19:24:07;13.40;99.90
17170;DHT22;8700;48.222;16.342;2023-05-07T19:27:32;13.30;99.90
17170;DHT22;8700;48.222;16.342;2023-05-07T19:30:57;13.30;99.90
17170;DHT22;8700;48.222;16.342;2023-05-07T19:34:18;13.20;99.90
17170;DHT22;8700;48.222;16.342;2023-05-07T19:37:41;13.10;99.90
17170;DHT22;8700;48.222;16.342;2023-05-07T19:41:02;13.00;99.90
17170;DHT22;8700;48.222;16.342;2023-05-07T19:44:24;13.00;99.90
17170;DHT22;8700;48.222;16.342;2023-05-07T19:47:47;12.80;99.90
17170;DHT22;8700;48.222;16.342;2023-05-07T19:51:09;12.80;99.90
17170;DHT22;8700;48.222;16.342;2023-05-07T19:54:32;12.80;99.90
17170;DHT22;8700;48.222;16.342;2023-05-07T19:57:53;12.50;99.90
17170;DHT22;8700;48.222;16.342;2023-05-07T20:01:15;12.60;99.90
17170;DHT22;8700;48.222;16.342;2023-05-07T20:04:36;12.50;99.90
17170;DHT22;8700;48.222;16.342;2023-05-07T20:07:57;12.50;99.90
17170;DHT22;8700;48.222;16.342;2023-05-07T20:11:20;12.40;99.90
17170;DHT22;8700;48.222;16.342;2023-05-07T20:14:42;12.30;99.90
17170;DHT22;8700;48.222;16.342;2023-05-07T20:18:03;12.30;99.90
17170;DHT22;8700;48.222;16.342;2023-05-07T20:21:25;12.40;99.90
17170;DHT22;8700;48.222;16.342;2023-05-07T20:24:46;12.40;99.90
17170;DHT22;8700;48.222;16.342;2023-05-07T20:28:09;12.30;99.90
17170;DHT22;8700;48.222;16.342;2023-05-07T20:31:30;12.30;99.90
17170;DHT22;8700;48.222;16.342;2023-05-07T20:34:53;12.30;99.90
17170;DHT22;8700;48.222;16.342;2023-05-07T20:38:15;12.20;99.90
17170;DHT22;8700;48.222;16.342;2023-05-07T20:41:36;12.10;99.90
17170;DHT22;8700;48.222;16.342;2023-05-07T20:44:59;12.10;99.90
17170;DHT22;8700;48.222;16.342;2023-05-07T20:48:20;12.00;99.90
17170;DHT22;8700;48.222;16.342;2023-05-07T20:51:41;12.10;99.90
17170;DHT22;8700;48.222;16.342;2023-05-07T20:55:04;12.00;99.90
17170;DHT22;8700;48.222;16.342;2023-05-07T20:58:27;12.00;99.90
17170;DHT22;8700;48.222;16.342;2023-05-07T21:01:50;12.00;99.90
17170;DHT22;8700;48.222;16.342;2023-05-07T21:05:11;11.90;99.90
17170;DHT22;8700;48.222;16.342;2023-05-07T21:08:32;11.80;99.90
17170;DHT22;8700;48.222;16.342;2023-05-07T21:11:53;11.90;99.90
17170;DHT22;8700;48.222;16.342;2023-05-07T21:15:15;11.90;99.90
17170;DHT22;8700;48.222;16.342;2023-05-07T21:18:40;11.80;99.90
17170;DHT22;8700;48.222;16.342;2023-05-07T21:22:02;11.90;99.90